sensor_id;sensor_type;location;lat;lon;timestamp;temperature;humidity
4596;DHT22;2310;49.978;8.742;2023-04-03T00:00:38;6.80;99.90
4596;DHT22;2310;49.978;8.742;2023-04-03T00:04:40;6.70;99.90
4596;DHT22;2310;49.978;8.742;2023-04-03T00:08:42;6.50;99.90
4596;DHT22;2310;49.978;8.742;2023-04-03T00:12:43;6.50;99.90
4596;DHT22;2310;49.978;8.742;2023-04-03T00:16:44;6.50;99.90
4596;DHT22;2310;49.978;8.742;2023-04-03T00:20:47;6.60;99.90
4596;DHT22;2310;49.978;8.742;2023-04-03T00:24:48;6.60;99.90
4596;DHT22;2310;49.978;8.742;2023-04-03T00:28:49;6.70;99.90
4596;DHT22;2310;49.978;8.742;2023-04-03T00:32:52;6.60;99.90
4596;DHT22;2310;49.978;8.742;2023-04-03T00:36:53;6.50;99.90
4596;DHT22;2310;49.978;8.742;2023-04-03T00:40:55;6.40;99.90
4596;DHT22;2310;49.978;8.742;2023-04-03T00:49:01;6.60;99.90
4596;DHT22;2310;49.978;8.742;2023-04-03T00:53:04;6.60;99.90
4596;DHT22;2310;49.978;8.742;2023-04-03T00:57:07;6.50;99.90
4596;DHT22;2310;49.978;8.742;2023-04-03T01:01:11;6.60;99.90
4596;DHT22;2310;49.978;8.742;2023-04-03T01:05:15;6.70;99.90
4596;DHT22;2310;49.978;8.742;2023-04-03T01:09:17;6.70;99.90
4596;DHT22;2310;49.978;8.742;2023-04-03T01:13:25;6.70;99.90
4596;DHT22;2310;49.978;8.742;2023-04-03T01:17:35;6.60;99.90
4596;DHT22;2310;49.978;8.742;2023-04-03T01:25:52;6.50;99.90
4596;DHT22;2310;49.978;8.742;2023-04-03T01:29:50;6.60;99.90
4596;DHT22;2310;49.978;8.742;2023-04-03T01:33:51;6.60;99.90
4596;DHT22;2310;49.978;8.742;2023-04-03T01:37:53;6.60;99.90
4596;DHT22;2310;49.978;8.742;2023-04-03T01:41:54;6.90;99.90
4596;DHT22;2310;49.978;8.742;2023-04-03T01:45:55;6.80;99.90
4596;DHT22;2310;49.978;8.742;2023-04-03T01:49:57;6.80;99.90
4596;DHT22;2310;49.978;8.742;2023-04-03T01:53:58;6.80;99.90
4596;DHT22;2310;49.978;8.742;2023-04-03T01:57:59;6.80;99.90
4596;DHT22;2310;49.978;8.742;2023-04-03T02:02:00;6.90;99.90
4596;DHT22;2310;49.978;8.742;2023-04-03T02:06:02;6.90;99.90
4596;DHT22;2310;49.978;8.742;2023-04-03T02:10:03;6.80;99.90
4596;DHT22;2310;49.978;8.742;2023-04-03T02:14:05;6.80;99.90
4596;DHT22;2310;49.978;8.742;2023-04-03T02:18:06;6.70;99.90
4596;DHT22;2310;49.978;8.742;2023-04-03T02:22:08;6.70;99.90
4596;DHT22;2310;49.978;8.742;2023-04-03T02:26:13;6.80;99.90
4596;DHT22;2310;49.978;8.742;2023-04-03T02:30:15;6.70;99.90
4596;DHT22;2310;49.978;8.742;2023-04-03T02:34:16;6.60;99.90
4596;DHT22;2310;49.978;8.742;2023-04-03T02:38:17;6.60;99.90
4596;DHT22;2310;49.978;8.742;2023-04-03T02:42:19;6.60;99.90
4596;DHT22;2310;49.978;8.742;2023-04-03T02:46:20;6.50;99.90
4596;DHT22;2310;49.978;8.742;2023-04-03T02:50:21;6.50;99.90
4596;DHT22;2310;49.978;8.742;2023-04-03T02:54:22;6.40;99.90
4596;DHT22;2310;49.978;8.742;2023-04-03T02:58:25;6.50;99.90
4596;DHT22;2310;49.978;8.742;2023-04-03T03:02:26;6.60;99.90
4596;DHT22;2310;49.978;8.742;2023-04-03T03:06:27;6.40;99.90
4596;DHT22;2310;49.978;8.742;2023-04-03T03:10:28;6.40;99.90
4596;DHT22;2310;49.978;8.742;2023-04-03T03:14:30;6.30;99.90
4596;DHT22;2310;49.978;8.742;2023-04-03T03:18:31;6.40;99.90
4596;DHT22;2310;49.978;8.742;2023-04-03T03:22:33;6.30;99.90
4596;DHT22;2310;49.978;8.742;2023-04-03T03:26:35;6.30;99.90
4596;DHT22;2310;49.978;8.742;2023-04-03T03:30:36;6.20;99.90
4596;DHT22;2310;49.978;8.742;2023-04-03T03:34:37;6.30;99.90
4596;DHT22;2310;49.978;8.742;2023-04-03T03:38:39;6.30;99.90
4596;DHT22;2310;49.978;8.742;2023-04-03T03:42:40;6.30;99.90
4596;DHT22;2310;49.978;8.742;2023-04-03T03:46:41;6.20;99.90
4596;DHT22;2310;49.978;8.742;2023-04-03T03:50:43;6.00;99.90
4596;DHT22;2310;49.978;8.742;2023-04-03T03:54:44;6.00;99.90
4596;DHT22;2310;49.978;8.742;2023-04-03T03:58:45;5.90;99.90
4596;DHT22;2310;49.978;8.742;2023-04-03T04:02:46;6.00;99.90
4596;DHT22;2310;49.978;8.742;2023-04-03T04:06:47;6.20;99.90
4596;DHT22;2310;49.978;8.742;2023-04-03T04:10:49;5.90;99.90
4596;DHT22;2310;49.978;8.742;2023-04-03T04:14:50;5.90;99.90
4596;DHT22;2310;49.978;8.742;2023-04-03T04:18:51;5.80;99.90
4596;DHT22;2310;49.978;8.742;2023-04-03T04:22:52;5.70;99.90
4596;DHT22;2310;49.978;8.742;2023-04-03T04:26:53;5.60;99.90
4596;DHT22;2310;49.978;8.742;2023-04-03T04:30:54;5.60;99.90
4596;DHT22;2310;49.978;8.742;2023-04-03T04:34:56;5.60;99.90
4596;DHT22;2310;49.978;8.742;2023-04-03T04:38:57;5.60;99.90
4596;DHT22;2310;49.978;8.742;2023-04-03T04:42:59;5.70;99.90
4596;DHT22;2310;49.978;8.742;2023-04-03T04:47:00;5.60;99.90
4596;DHT22;2310;49.978;8.742;2023-04-03T04:51:02;5.70;99.90
4596;DHT22;2310;49.978;8.742;2023-04-03T04:55:05;5.60;99.90
4596;DHT22;2310;49.978;8.742;2023-04-03T04:59:06;5.60;99.90
4596;DHT22;2310;49.978;8.742;2023-04-03T05:03:07;5.60;99.90
4596;DHT22;2310;49.978;8.742;2023-04-03T05:07:09;5.60;99.90
4596;DHT22;2310;49.978;8.742;2023-04-03T05:11:10;5.60;99.90
4596;DHT22;2310;49.978;8.742;2023-04-03T05:15:11;5.70;99.90
4596;DHT22;2310;49.978;8.742;2023-04-03T05:19:12;5.70;99.90
4596;DHT22;2310;49.978;8.742;2023-04-03T05:23:14;5.80;99.90
4596;DHT22;2310;49.978;8.742;2023-04-03T05:27:15;5.80;99.90
4596;DHT22;2310;49.978;8.742;2023-04-03T05:31:16;5.60;99.90
4596;DHT22;2310;49.978;8.742;2023-04-03T05:35:17;5.30;99.90
4596;DHT22;2310;49.978;8.742;2023-04-03T05:39:18;5.10;99.90
4596;DHT22;2310;49.978;8.742;2023-04-03T05:43:19;5.30;99.90
4596;DHT22;2310;49.978;8.742;2023-04-03T05:47:21;5.30;99.90
4596;DHT22;2310;49.978;8.742;2023-04-03T05:51:25;5.10;99.90
4596;DHT22;2310;49.978;8.742;2023-04-03T05:55:29;5.20;99.90
4596;DHT22;2310;49.978;8.742;2023-04-03T05:59:30;5.20;99.90
4596;DHT22;2310;49.978;8.742;2023-04-03T06:03:32;5.10;99.90
4596;DHT22;2310;49.978;8.742;2023-04-03T06:07:33;5.40;99.90
4596;DHT22;2310;49.978;8.742;2023-04-03T06:11:34;5.20;99.90
4596;DHT22;2310;49.978;8.742;2023-04-03T06:15:36;5.20;99.90
4596;DHT22;2310;49.978;8.742;2023-04-03T06:19:39;5.20;99.90
4596;DHT22;2310;49.978;8.742;2023-04-03T06:23:40;5.30;99.90
4596;DHT22;2310;49.978;8.742;2023-04-03T06:27:41;5.40;99.90
4596;DHT22;2310;49.978;8.742;2023-04-03T06:31:43;5.40;99.90
4596;DHT22;2310;49.978;8.742;2023-04-03T06:35:44;5.70;99.90
4596;DHT22;2310;49.978;8.742;2023-04-03T06:39:46;6.10;99.90
4596;DHT22;2310;49.978;8.742;2023-04-03T06:43:48;5.90;99.90
4596;DHT22;2310;49.978;8.742;2023-04-03T06:47:49;5.80;99.90
4596;DHT22;2310;49.978;8.742;2023-04-03T06:51:50;6.00;99.90
4596;DHT22;2310;49.978;8.742;2023-04-03T06:55:52;6.10;99.90
4596;DHT22;2310;49.978;8.742;2023-04-03T06:59:53;6.20;99.90
4596;DHT22;2310;49.978;8.742;2023-04-03T07:03:55;6.30;99.90
4596;DHT22;2310;49.978;8.742;2023-04-03T07:07:57;6.40;99.90
4596;DHT22;2310;49.978;8.742;2023-04-03T07:11:58;6.50;99.90
4596;DHT22;2310;49.978;8.742;2023-04-03T07:16:01;6.50;99.90
4596;DHT22;2310;49.978;8.742;2023-04-03T07:20:05;6.60;99.90
4596;DHT22;2310;49.978;8.742;2023-04-03T07:24:07;6.70;99.90
4596;DHT22;2310;49.978;8.742;2023-04-03T07:28:10;6.90;99.90
4596;DHT22;2310;49.978;8.742;2023-04-03T07:32:12;6.90;99.90
4596;DHT22;2310;49.978;8.742;2023-04-03T07:36:19;7.40;99.90
4596;DHT22;2310;49.978;8.742;2023-04-03T07:40:20;7.40;99.90
4596;DHT22;2310;49.978;8.742;2023-04-03T07:44:23;7.30;99.90
4596;DHT22;2310;49.978;8.742;2023-04-03T07:48:25;7.60;99.90
4596;DHT22;2310;49.978;8.742;2023-04-03T07:52:27;7.90;99.90
4596;DHT22;2310;49.978;8.742;2023-04-03T07:56:28;7.60;99.90
4596;DHT22;2310;49.978;8.742;2023-04-03T08:00:29;7.90;99.90
4596;DHT22;2310;49.978;8.742;2023-04-03T08:04:31;8.20;99.90
4596;DHT22;2310;49.978;8.742;2023-04-03T08:08:32;8.10;99.90
4596;DHT22;2310;49.978;8.742;2023-04-03T08:12:33;8.10;99.90
4596;DHT22;2310;49.978;8.742;2023-04-03T08:16:35;8.30;99.90
4596;DHT22;2310;49.978;8.742;2023-04-03T08:20:38;8.80;99.90
4596;DHT22;2310;49.978;8.742;2023-04-03T08:24:39;9.40;99.90
4596;DHT22;2310;49.978;8.742;2023-04-03T08:28:42;9.20;99.90
4596;DHT22;2310;49.978;8.742;2023-04-03T08:32:43;8.70;98.20
4596;DHT22;2310;49.978;8.742;2023-04-03T08:36:45;9.20;98.80
4596;DHT22;2310;49.978;8.742;2023-04-03T08:40:47;9.50;93.30
4596;DHT22;2310;49.978;8.742;2023-04-03T08:49:19;9.80;92.60
4596;DHT22;2310;49.978;8.742;2023-04-03T08:53:18;9.60;92.00
4596;DHT22;2310;49.978;8.742;2023-04-03T08:57:35;10.70;95.00
4596;DHT22;2310;49.978;8.742;2023-04-03T09:01:34;11.10;74.00
4596;DHT22;2310;49.978;8.742;2023-04-03T09:06:02;11.40;67.30
4596;DHT22;2310;49.978;8.742;2023-04-03T09:10:03;11.20;67.90
4596;DHT22;2310;49.978;8.742;2023-04-03T09:18:36;10.40;75.70
4596;DHT22;2310;49.978;8.742;2023-04-03T09:22:41;9.70;84.60
4596;DHT22;2310;49.978;8.742;2023-04-03T09:26:49;9.50;93.40
4596;DHT22;2310;49.978;8.742;2023-04-03T09:30:51;9.10;93.30
4596;DHT22;2310;49.978;8.742;2023-04-03T09:34:54;9.10;93.80
4596;DHT22;2310;49.978;8.742;2023-04-03T09:39:02;9.70;93.50
4596;DHT22;2310;49.978;8.742;2023-04-03T09:43:29;9.90;92.30
4596;DHT22;2310;49.978;8.742;2023-04-03T09:47:36;10.00;88.10
4596;DHT22;2310;49.978;8.742;2023-04-03T09:51:36;10.20;91.10
4596;DHT22;2310;49.978;8.742;2023-04-03T09:55:43;10.40;84.80
4596;DHT22;2310;49.978;8.742;2023-04-03T10:12:19;10.30;72.00
4596;DHT22;2310;49.978;8.742;2023-04-03T10:16:28;10.20;75.40
4596;DHT22;2310;49.978;8.742;2023-04-03T10:20:40;10.30;73.40
4596;DHT22;2310;49.978;8.742;2023-04-03T10:29:26;11.80;99.90
4596;DHT22;2310;49.978;8.742;2023-04-03T10:33:47;12.40;69.00
4596;DHT22;2310;49.978;8.742;2023-04-03T10:38:09;11.40;62.00
4596;DHT22;2310;49.978;8.742;2023-04-03T10:54:48;10.10;73.50
4596;DHT22;2310;49.978;8.742;2023-04-03T10:58:52;10.20;72.20
4596;DHT22;2310;49.978;8.742;2023-04-03T11:02:58;9.80;70.30
4596;DHT22;2310;49.978;8.742;2023-04-03T11:07:20;9.60;71.90
4596;DHT22;2310;49.978;8.742;2023-04-03T11:11:29;9.50;72.50
4596;DHT22;2310;49.978;8.742;2023-04-03T11:15:32;9.50;73.80
4596;DHT22;2310;49.978;8.742;2023-04-03T11:19:59;9.30;71.80
4596;DHT22;2310;49.978;8.742;2023-04-03T11:24:02;9.80;70.80
4596;DHT22;2310;49.978;8.742;2023-04-03T11:28:09;10.10;65.80
4596;DHT22;2310;49.978;8.742;2023-04-03T11:32:17;10.70;58.60
4596;DHT22;2310;49.978;8.742;2023-04-03T11:36:33;11.20;57.70
4596;DHT22;2310;49.978;8.742;2023-04-03T11:40:35;10.60;56.40
4596;DHT22;2310;49.978;8.742;2023-04-03T11:44:38;10.80;56.10
4596;DHT22;2310;49.978;8.742;2023-04-03T11:48:42;11.00;52.60
4596;DHT22;2310;49.978;8.742;2023-04-03T11:56:52;10.60;50.50
4596;DHT22;2310;49.978;8.742;2023-04-03T12:05:28;11.20;48.70
4596;DHT22;2310;49.978;8.742;2023-04-03T12:17:58;11.30;43.90
4596;DHT22;2310;49.978;8.742;2023-04-03T12:26:22;11.50;44.50
4596;DHT22;2310;49.978;8.742;2023-04-03T12:30:30;12.10;45.30
4596;DHT22;2310;49.978;8.742;2023-04-03T12:34:38;12.30;43.00
4596;DHT22;2310;49.978;8.742;2023-04-03T12:46:52;11.40;41.70
4596;DHT22;2310;49.978;8.742;2023-04-03T12:50:54;11.80;41.20
4596;DHT22;2310;49.978;8.742;2023-04-03T12:54:57;11.90;40.30
4596;DHT22;2310;49.978;8.742;2023-04-03T12:59:23;12.00;41.00
4596;DHT22;2310;49.978;8.742;2023-04-03T13:03:25;12.00;39.90
4596;DHT22;2310;49.978;8.742;2023-04-03T13:07:36;12.70;45.00
4596;DHT22;2310;49.978;8.742;2023-04-03T13:11:40;12.60;42.60
4596;DHT22;2310;49.978;8.742;2023-04-03T13:15:45;12.80;43.50
4596;DHT22;2310;49.978;8.742;2023-04-03T13:19:47;12.60;43.70
4596;DHT22;2310;49.978;8.742;2023-04-03T13:23:50;12.60;43.50
4596;DHT22;2310;49.978;8.742;2023-04-03T13:27:55;12.70;43.50
4596;DHT22;2310;49.978;8.742;2023-04-03T13:32:00;12.60;43.40
4596;DHT22;2310;49.978;8.742;2023-04-03T13:40:11;12.10;43.60
4596;DHT22;2310;49.978;8.742;2023-04-03T13:48:21;11.30;44.90
4596;DHT22;2310;49.978;8.742;2023-04-03T13:52:38;11.50;44.90
4596;DHT22;2310;49.978;8.742;2023-04-03T13:56:39;11.70;45.10
4596;DHT22;2310;49.978;8.742;2023-04-03T14:00:59;11.70;44.80
4596;DHT22;2310;49.978;8.742;2023-04-03T14:04:59;11.40;44.40
4596;DHT22;2310;49.978;8.742;2023-04-03T14:09:03;11.10;44.70
4596;DHT22;2310;49.978;8.742;2023-04-03T14:13:04;11.40;44.10
4596;DHT22;2310;49.978;8.742;2023-04-03T14:17:20;11.30;44.20
4596;DHT22;2310;49.978;8.742;2023-04-03T14:21:24;10.80;45.20
4596;DHT22;2310;49.978;8.742;2023-04-03T14:25:25;10.80;44.20
4596;DHT22;2310;49.978;8.742;2023-04-03T14:29:27;10.70;45.40
4596;DHT22;2310;49.978;8.742;2023-04-03T14:33:28;10.90;46.30
4596;DHT22;2310;49.978;8.742;2023-04-03T14:37:32;11.30;47.20
4596;DHT22;2310;49.978;8.742;2023-04-03T14:41:34;11.30;46.20
4596;DHT22;2310;49.978;8.742;2023-04-03T14:45:36;11.20;45.30
4596;DHT22;2310;49.978;8.742;2023-04-03T14:49:37;11.10;44.60
4596;DHT22;2310;49.978;8.742;2023-04-03T14:53:41;11.20;45.80
4596;DHT22;2310;49.978;8.742;2023-04-03T14:57:43;11.00;45.70
4596;DHT22;2310;49.978;8.742;2023-04-03T15:01:45;10.60;46.00
4596;DHT22;2310;49.978;8.742;2023-04-03T15:05:48;10.80;46.60
4596;DHT22;2310;49.978;8.742;2023-04-03T15:09:50;10.70;46.50
4596;DHT22;2310;49.978;8.742;2023-04-03T15:13:51;10.60;46.30
4596;DHT22;2310;49.978;8.742;2023-04-03T15:17:54;10.90;47.10
4596;DHT22;2310;49.978;8.742;2023-04-03T15:21:56;10.80;46.00
4596;DHT22;2310;49.978;8.742;2023-04-03T15:25:57;10.90;46.80
4596;DHT22;2310;49.978;8.742;2023-04-03T15:29:58;10.60;46.10
4596;DHT22;2310;49.978;8.742;2023-04-03T15:33:59;10.60;47.00
4596;DHT22;2310;49.978;8.742;2023-04-03T15:38:01;10.40;47.20
4596;DHT22;2310;49.978;8.742;2023-04-03T15:42:02;10.40;48.40
4596;DHT22;2310;49.978;8.742;2023-04-03T15:46:09;10.40;47.50
4596;DHT22;2310;49.978;8.742;2023-04-03T15:50:10;10.30;47.20
4596;DHT22;2310;49.978;8.742;2023-04-03T15:54:12;10.20;47.50
4596;DHT22;2310;49.978;8.742;2023-04-03T15:58:13;10.20;47.90
4596;DHT22;2310;49.978;8.742;2023-04-03T16:02:17;10.10;47.60
4596;DHT22;2310;49.978;8.742;2023-04-03T16:06:19;10.00;47.10
4596;DHT22;2310;49.978;8.742;2023-04-03T16:10:21;10.00;48.10
4596;DHT22;2310;49.978;8.742;2023-04-03T16:14:23;9.80;49.30
4596;DHT22;2310;49.978;8.742;2023-04-03T16:18:25;9.80;49.20
4596;DHT22;2310;49.978;8.742;2023-04-03T16:22:28;9.70;49.80
4596;DHT22;2310;49.978;8.742;2023-04-03T16:26:31;9.70;49.50
4596;DHT22;2310;49.978;8.742;2023-04-03T16:30:33;9.70;49.80
4596;DHT22;2310;49.978;8.742;2023-04-03T16:34:35;9.50;49.80
4596;DHT22;2310;49.978;8.742;2023-04-03T16:38:37;9.40;50.10
4596;DHT22;2310;49.978;8.742;2023-04-03T16:42:41;9.50;50.80
4596;DHT22;2310;49.978;8.742;2023-04-03T16:46:43;9.40;51.80
4596;DHT22;2310;49.978;8.742;2023-04-03T16:50:47;9.20;51.30
4596;DHT22;2310;49.978;8.742;2023-04-03T16:54:50;9.20;51.10
4596;DHT22;2310;49.978;8.742;2023-04-03T16:58:54;9.20;52.20
4596;DHT22;2310;49.978;8.742;2023-04-03T17:02:56;9.20;52.10
4596;DHT22;2310;49.978;8.742;2023-04-03T17:06:58;9.10;51.80
4596;DHT22;2310;49.978;8.742;2023-04-03T17:11:01;8.80;52.60
4596;DHT22;2310;49.978;8.742;2023-04-03T17:15:03;8.90;53.60
4596;DHT22;2310;49.978;8.742;2023-04-03T17:19:05;9.10;53.20
4596;DHT22;2310;49.978;8.742;2023-04-03T17:23:07;8.90;53.70
4596;DHT22;2310;49.978;8.742;2023-04-03T17:27:09;8.70;53.60
4596;DHT22;2310;49.978;8.742;2023-04-03T17:31:11;8.50;53.50
4596;DHT22;2310;49.978;8.742;2023-04-03T17:35:13;8.40;52.90
4596;DHT22;2310;49.978;8.742;2023-04-03T17:39:15;8.30;52.70
4596;DHT22;2310;49.978;8.742;2023-04-03T17:43:16;8.20;53.80
4596;DHT22;2310;49.978;8.742;2023-04-03T17:47:18;8.00;53.90
4596;DHT22;2310;49.978;8.742;2023-04-03T17:51:22;8.10;55.90
4596;DHT22;2310;49.978;8.742;2023-04-03T17:55:23;8.00;55.90
4596;DHT22;2310;49.978;8.742;2023-04-03T17:59:25;7.80;55.90
4596;DHT22;2310;49.978;8.742;2023-04-03T18:03:26;7.70;56.60
4596;DHT22;2310;49.978;8.742;2023-04-03T18:07:27;7.60;57.20
4596;DHT22;2310;49.978;8.742;2023-04-03T18:11:29;7.40;57.40
4596;DHT22;2310;49.978;8.742;2023-04-03T18:15:30;8.00;73.30
4596;DHT22;2310;49.978;8.742;2023-04-03T18:19:35;7.70;70.20
4596;DHT22;2310;49.978;8.742;2023-04-03T18:23:40;7.60;68.10
4596;DHT22;2310;49.978;8.742;2023-04-03T18:27:43;7.50;68.90
4596;DHT22;2310;49.978;8.742;2023-04-03T18:31:47;7.20;69.30
4596;DHT22;2310;49.978;8.742;2023-04-03T18:35:49;7.20;71.00
4596;DHT22;2310;49.978;8.742;2023-04-03T18:39:51;7.00;69.40
4596;DHT22;2310;49.978;8.742;2023-04-03T18:43:55;7.00;71.80
4596;DHT22;2310;49.978;8.742;2023-04-03T18:47:57;7.00;73.10
4596;DHT22;2310;49.978;8.742;2023-04-03T18:51:59;6.90;74.80
4596;DHT22;2310;49.978;8.742;2023-04-03T18:56:00;6.70;75.50
4596;DHT22;2310;49.978;8.742;2023-04-03T19:00:02;6.60;80.70
4596;DHT22;2310;49.978;8.742;2023-04-03T19:04:05;6.60;79.10
4596;DHT22;2310;49.978;8.742;2023-04-03T19:08:08;6.60;79.70
4596;DHT22;2310;49.978;8.742;2023-04-03T19:12:10;6.50;81.70
4596;DHT22;2310;49.978;8.742;2023-04-03T19:16:11;6.50;82.60
4596;DHT22;2310;49.978;8.742;2023-04-03T19:20:14;6.40;83.30
4596;DHT22;2310;49.978;8.742;2023-04-03T19:24:16;6.40;85.20
4596;DHT22;2310;49.978;8.742;2023-04-03T19:28:18;6.30;87.10
4596;DHT22;2310;49.978;8.742;2023-04-03T19:32:20;6.30;86.40
4596;DHT22;2310;49.978;8.742;2023-04-03T19:36:22;6.20;88.10
4596;DHT22;2310;49.978;8.742;2023-04-03T19:40:24;6.30;90.60
4596;DHT22;2310;49.978;8.742;2023-04-03T19:44:28;6.30;90.40
4596;DHT22;2310;49.978;8.742;2023-04-03T19:48:32;6.20;90.00
4596;DHT22;2310;49.978;8.742;2023-04-03T19:52:34;6.10;91.40
4596;DHT22;2310;49.978;8.742;2023-04-03T19:56:39;6.20;91.50
4596;DHT22;2310;49.978;8.742;2023-04-03T20:00:40;6.20;91.40
4596;DHT22;2310;49.978;8.742;2023-04-03T20:04:43;6.10;91.30
4596;DHT22;2310;49.978;8.742;2023-04-03T20:08:45;6.00;91.70
4596;DHT22;2310;49.978;8.742;2023-04-03T20:12:47;5.90;92.10
4596;DHT22;2310;49.978;8.742;2023-04-03T20:16:53;5.80;93.50
4596;DHT22;2310;49.978;8.742;2023-04-03T20:21:03;5.70;95.00
4596;DHT22;2310;49.978;8.742;2023-04-03T20:25:04;5.60;96.20
4596;DHT22;2310;49.978;8.742;2023-04-03T20:29:07;5.50;95.50
4596;DHT22;2310;49.978;8.742;2023-04-03T20:33:09;5.60;95.80
4596;DHT22;2310;49.978;8.742;2023-04-03T20:37:12;5.60;93.00
4596;DHT22;2310;49.978;8.742;2023-04-03T20:41:15;5.70;94.00
4596;DHT22;2310;49.978;8.742;2023-04-03T20:45:17;5.50;94.20
4596;DHT22;2310;49.978;8.742;2023-04-03T20:49:18;5.50;93.80
4596;DHT22;2310;49.978;8.742;2023-04-03T20:53:21;5.50;94.20
4596;DHT22;2310;49.978;8.742;2023-04-03T20:57:23;5.40;94.90
4596;DHT22;2310;49.978;8.742;2023-04-03T21:01:27;5.40;95.40
4596;DHT22;2310;49.978;8.742;2023-04-03T21:05:28;5.40;97.90
4596;DHT22;2310;49.978;8.742;2023-04-03T21:22:56;5.00;97.00
4596;DHT22;2310;49.978;8.742;2023-04-03T21:26:57;5.00;97.70
4596;DHT22;2310;49.978;8.742;2023-04-03T21:30:59;5.00;97.20
4596;DHT22;2310;49.978;8.742;2023-04-03T21:34:59;5.10;96.50
4596;DHT22;2310;49.978;8.742;2023-04-03T21:39:01;5.00;95.90
4596;DHT22;2310;49.978;8.742;2023-04-03T21:43:02;5.00;96.40
4596;DHT22;2310;49.978;8.742;2023-04-03T21:47:05;4.90;97.60
4596;DHT22;2310;49.978;8.742;2023-04-03T21:51:06;4.90;97.80
4596;DHT22;2310;49.978;8.742;2023-04-03T21:55:08;4.80;97.30
4596;DHT22;2310;49.978;8.742;2023-04-03T21:59:09;4.70;97.20
4596;DHT22;2310;49.978;8.742;2023-04-03T22:03:11;4.80;99.10
4596;DHT22;2310;49.978;8.742;2023-04-03T22:07:15;4.90;98.00
4596;DHT22;2310;49.978;8.742;2023-04-03T22:11:17;4.80;98.80
4596;DHT22;2310;49.978;8.742;2023-04-03T22:15:18;4.80;99.10
4596;DHT22;2310;49.978;8.742;2023-04-03T22:19:19;4.80;98.30
4596;DHT22;2310;49.978;8.742;2023-04-03T22:23:21;4.90;97.00
4596;DHT22;2310;49.978;8.742;2023-04-03T22:27:22;4.80;98.80
4596;DHT22;2310;49.978;8.742;2023-04-03T22:31:23;4.80;97.90
4596;DHT22;2310;49.978;8.742;2023-04-03T22:35:25;4.90;97.90
4596;DHT22;2310;49.978;8.742;2023-04-03T22:39:27;4.80;97.40
4596;DHT22;2310;49.978;8.742;2023-04-03T22:43:30;4.70;97.90
4596;DHT22;2310;49.978;8.742;2023-04-03T22:47:32;4.70;99.10
4596;DHT22;2310;49.978;8.742;2023-04-03T22:51:33;4.70;99.20
4596;DHT22;2310;49.978;8.742;2023-04-03T22:55:34;4.70;98.60
4596;DHT22;2310;49.978;8.742;2023-04-03T22:59:36;4.60;98.90
4596;DHT22;2310;49.978;8.742;2023-04-03T23:03:38;4.70;98.90
4596;DHT22;2310;49.978;8.742;2023-04-03T23:07:40;4.60;98.30
4596;DHT22;2310;49.978;8.742;2023-04-03T23:11:41;4.70;99.60
4596;DHT22;2310;49.978;8.742;2023-04-03T23:15:43;4.70;98.60
4596;DHT22;2310;49.978;8.742;2023-04-03T23:19:44;4.50;98.40
4596;DHT22;2310;49.978;8.742;2023-04-03T23:23:45;4.50;99.10
4596;DHT22;2310;49.978;8.742;2023-04-03T23:27:50;4.60;99.50
4596;DHT22;2310;49.978;8.742;2023-04-03T23:31:54;4.60;99.60
4596;DHT22;2310;49.978;8.742;2023-04-03T23:35:56;4.40;99.50
4596;DHT22;2310;49.978;8.742;2023-04-03T23:39:58;4.40;99.60
4596;DHT22;2310;49.978;8.742;2023-04-03T23:44:01;4.40;99.90
4596;DHT22;2310;49.978;8.742;2023-04-03T23:48:02;4.10;99.90
4596;DHT22;2310;49.978;8.742;2023-04-03T23:52:04;4.20;99.90
4596;DHT22;2310;49.978;8.742;2023-04-03T23:56:05;4.20;99.90
